sensor_id;sensor_type;location;lat;lon;timestamp;P1;durP1;ratioP1;P2;durP2;ratioP2
68653;SDS011;55636;51.108;13.622;2023-09-19T00:01:05;1.77;;;1.60;;
68653;SDS011;55636;51.108;13.622;2023-09-19T00:02:09;2.10;;;1.45;;
68653;SDS011;55636;51.108;13.622;2023-09-19T00:03:13;1.48;;;1.38;;
68653;SDS011;55636;51.108;13.622;2023-09-19T00:04:16;1.63;;;1.50;;
68653;SDS011;55636;51.108;13.622;2023-09-19T00:05:21;1.77;;;1.60;;
68653;SDS011;55636;51.108;13.622;2023-09-19T00:06:28;2.22;;;1.60;;
68653;SDS011;55636;51.108;13.622;2023-09-19T00:07:33;3.05;;;1.50;;
68653;SDS011;55636;51.108;13.622;2023-09-19T00:08:38;1.88;;;1.50;;
68653;SDS011;55636;51.108;13.622;2023-09-19T00:09:41;1.45;;;1.35;;
68653;SDS011;55636;51.108;13.622;2023-09-19T00:10:45;2.00;;;1.50;;
68653;SDS011;55636;51.108;13.622;2023-09-19T00:11:49;1.90;;;1.50;;
68653;SDS011;55636;51.108;13.622;2023-09-19T00:12:54;2.42;;;1.40;;
68653;SDS011;55636;51.108;13.622;2023-09-19T00:13:57;1.67;;;1.30;;
68653;SDS011;55636;51.108;13.622;2023-09-19T00:15:03;2.38;;;1.70;;
68653;SDS011;55636;51.108;13.622;2023-09-19T00:16:09;2.50;;;1.60;;
68653;SDS011;55636;51.108;13.622;2023-09-19T00:17:13;2.00;;;1.60;;
68653;SDS011;55636;51.108;13.622;2023-09-19T00:18:18;1.98;;;1.60;;
68653;SDS011;55636;51.108;13.622;2023-09-19T00:19:24;1.67;;;1.40;;
68653;SDS011;55636;51.108;13.622;2023-09-19T00:20:27;1.83;;;1.40;;
68653;SDS011;55636;51.108;13.622;2023-09-19T00:21:31;2.22;;;1.42;;
68653;SDS011;55636;51.108;13.622;2023-09-19T00:22:34;1.98;;;1.52;;
68653;SDS011;55636;51.108;13.622;2023-09-19T00:23:37;2.58;;;1.38;;
68653;SDS011;55636;51.108;13.622;2023-09-19T00:24:40;1.58;;;1.48;;
68653;SDS011;55636;51.108;13.622;2023-09-19T00:25:42;1.50;;;1.40;;
68653;SDS011;55636;51.108;13.622;2023-09-19T00:26:45;1.75;;;1.40;;
68653;SDS011;55636;51.108;13.622;2023-09-19T00:27:49;2.25;;;1.40;;
68653;SDS011;55636;51.108;13.622;2023-09-19T00:28:54;2.67;;;1.67;;
68653;SDS011;55636;51.108;13.622;2023-09-19T00:29:59;2.10;;;1.60;;
68653;SDS011;55636;51.108;13.622;2023-09-19T00:31:02;1.88;;;1.70;;
68653;SDS011;55636;51.108;13.622;2023-09-19T00:32:06;2.47;;;1.85;;
68653;SDS011;55636;51.108;13.622;2023-09-19T00:33:09;1.73;;;1.60;;
68653;SDS011;55636;51.108;13.622;2023-09-19T00:34:13;2.72;;;1.50;;
68653;SDS011;55636;51.108;13.622;2023-09-19T00:35:17;2.70;;;1.70;;
68653;SDS011;55636;51.108;13.622;2023-09-19T00:36:19;2.30;;;1.55;;
68653;SDS011;55636;51.108;13.622;2023-09-19T00:37:22;1.63;;;1.52;;
68653;SDS011;55636;51.108;13.622;2023-09-19T00:38:24;1.60;;;1.50;;
68653;SDS011;55636;51.108;13.622;2023-09-19T00:39:29;2.83;;;1.70;;
68653;SDS011;55636;51.108;13.622;2023-09-19T00:40:34;1.90;;;1.77;;
68653;SDS011;55636;51.108;13.622;2023-09-19T00:41:37;1.63;;;1.52;;
68653;SDS011;55636;51.108;13.622;2023-09-19T00:42:40;2.20;;;1.52;;
68653;SDS011;55636;51.108;13.622;2023-09-19T00:43:50;2.05;;;1.60;;
68653;SDS011;55636;51.108;13.622;2023-09-19T00:44:54;3.60;;;1.73;;
68653;SDS011;55636;51.108;13.622;2023-09-19T00:45:56;3.03;;;1.58;;
68653;SDS011;55636;51.108;13.622;2023-09-19T00:46:59;1.90;;;1.60;;
68653;SDS011;55636;51.108;13.622;2023-09-19T00:48:02;2.55;;;1.73;;
68653;SDS011;55636;51.108;13.622;2023-09-19T00:49:07;2.42;;;1.70;;
68653;SDS011;55636;51.108;13.622;2023-09-19T00:50:10;1.70;;;1.60;;
68653;SDS011;55636;51.108;13.622;2023-09-19T00:51:16;1.73;;;1.50;;
68653;SDS011;55636;51.108;13.622;2023-09-19T00:52:22;2.95;;;1.70;;
68653;SDS011;55636;51.108;13.622;2023-09-19T00:53:25;3.65;;;1.80;;
68653;SDS011;55636;51.108;13.622;2023-09-19T00:54:29;1.90;;;1.70;;
68653;SDS011;55636;51.108;13.622;2023-09-19T00:55:32;3.55;;;1.60;;
68653;SDS011;55636;51.108;13.622;2023-09-19T00:56:34;2.30;;;1.75;;
68653;SDS011;55636;51.108;13.622;2023-09-19T00:57:40;2.75;;;1.90;;
68653;SDS011;55636;51.108;13.622;2023-09-19T00:58:43;3.17;;;1.85;;
68653;SDS011;55636;51.108;13.622;2023-09-19T00:59:45;3.20;;;1.90;;
68653;SDS011;55636;51.108;13.622;2023-09-19T01:00:51;2.70;;;1.58;;
68653;SDS011;55636;51.108;13.622;2023-09-19T01:01:56;3.58;;;2.00;;
68653;SDS011;55636;51.108;13.622;2023-09-19T01:02:58;2.05;;;1.73;;
68653;SDS011;55636;51.108;13.622;2023-09-19T01:04:03;3.38;;;1.80;;
68653;SDS011;55636;51.108;13.622;2023-09-19T01:05:06;1.85;;;1.60;;
68653;SDS011;55636;51.108;13.622;2023-09-19T01:06:09;3.40;;;1.77;;
68653;SDS011;55636;51.108;13.622;2023-09-19T01:07:13;2.72;;;1.75;;
68653;SDS011;55636;51.108;13.622;2023-09-19T01:08:17;3.60;;;1.70;;
68653;SDS011;55636;51.108;13.622;2023-09-19T01:09:20;3.30;;;1.98;;
68653;SDS011;55636;51.108;13.622;2023-09-19T01:10:23;2.33;;;1.67;;
68653;SDS011;55636;51.108;13.622;2023-09-19T01:11:37;3.05;;;1.60;;
68653;SDS011;55636;51.108;13.622;2023-09-19T01:16:45;2.35;;;1.80;;
68653;SDS011;55636;51.108;13.622;2023-09-19T01:30:49;2.78;;;2.05;;
68653;SDS011;55636;51.108;13.622;2023-09-19T01:32:03;2.20;;;2.00;;
68653;SDS011;55636;51.108;13.622;2023-09-19T01:33:07;2.15;;;1.95;;
68653;SDS011;55636;51.108;13.622;2023-09-19T01:34:10;3.08;;;2.10;;
68653;SDS011;55636;51.108;13.622;2023-09-19T01:35:12;2.55;;;2.20;;
68653;SDS011;55636;51.108;13.622;2023-09-19T01:36:15;3.00;;;2.08;;
68653;SDS011;55636;51.108;13.622;2023-09-19T01:37:19;2.67;;;2.05;;
68653;SDS011;55636;51.108;13.622;2023-09-19T01:38:26;2.63;;;2.30;;
68653;SDS011;55636;51.108;13.622;2023-09-19T01:39:29;2.60;;;2.40;;
68653;SDS011;55636;51.108;13.622;2023-09-19T01:40:32;2.45;;;1.80;;
68653;SDS011;55636;51.108;13.622;2023-09-19T01:43:13;2.42;;;2.10;;
68653;SDS011;55636;51.108;13.622;2023-09-19T01:45:56;2.05;;;1.95;;
68653;SDS011;55636;51.108;13.622;2023-09-19T01:47:08;3.20;;;2.17;;
68653;SDS011;55636;51.108;13.622;2023-09-19T01:48:27;2.67;;;2.00;;
68653;SDS011;55636;51.108;13.622;2023-09-19T01:49:44;2.70;;;1.92;;
68653;SDS011;55636;51.108;13.622;2023-09-19T01:50:59;2.25;;;1.90;;
68653;SDS011;55636;51.108;13.622;2023-09-19T01:52:11;2.80;;;2.10;;
68653;SDS011;55636;51.108;13.622;2023-09-19T01:53:24;2.95;;;1.90;;
68653;SDS011;55636;51.108;13.622;2023-09-19T01:54:31;2.60;;;1.70;;
68653;SDS011;55636;51.108;13.622;2023-09-19T01:55:37;2.35;;;1.88;;
68653;SDS011;55636;51.108;13.622;2023-09-19T01:56:48;3.50;;;1.88;;
68653;SDS011;55636;51.108;13.622;2023-09-19T01:57:58;2.15;;;1.77;;
68653;SDS011;55636;51.108;13.622;2023-09-19T01:59:08;2.83;;;1.88;;
68653;SDS011;55636;51.108;13.622;2023-09-19T02:00:15;2.10;;;1.90;;
68653;SDS011;55636;51.108;13.622;2023-09-19T02:01:22;2.40;;;2.20;;
68653;SDS011;55636;51.108;13.622;2023-09-19T02:02:26;3.13;;;2.20;;
68653;SDS011;55636;51.108;13.622;2023-09-19T02:03:31;2.20;;;2.00;;
68653;SDS011;55636;51.108;13.622;2023-09-19T02:04:35;3.10;;;2.40;;
68653;SDS011;55636;51.108;13.622;2023-09-19T02:05:38;2.97;;;2.00;;
68653;SDS011;55636;51.108;13.622;2023-09-19T02:06:41;3.15;;;1.95;;
68653;SDS011;55636;51.108;13.622;2023-09-19T02:07:44;2.20;;;2.00;;
68653;SDS011;55636;51.108;13.622;2023-09-19T02:08:47;2.78;;;2.00;;
68653;SDS011;55636;51.108;13.622;2023-09-19T02:09:49;1.80;;;1.70;;
68653;SDS011;55636;51.108;13.622;2023-09-19T02:10:52;2.13;;;1.90;;
68653;SDS011;55636;51.108;13.622;2023-09-19T02:11:55;2.85;;;1.70;;
68653;SDS011;55636;51.108;13.622;2023-09-19T02:12:58;2.30;;;1.80;;
68653;SDS011;55636;51.108;13.622;2023-09-19T02:14:01;2.45;;;1.92;;
68653;SDS011;55636;51.108;13.622;2023-09-19T02:15:04;2.63;;;1.80;;
68653;SDS011;55636;51.108;13.622;2023-09-19T02:16:09;2.40;;;1.80;;
68653;SDS011;55636;51.108;13.622;2023-09-19T02:17:13;3.47;;;1.90;;
68653;SDS011;55636;51.108;13.622;2023-09-19T02:18:16;2.42;;;1.77;;
68653;SDS011;55636;51.108;13.622;2023-09-19T02:19:19;3.45;;;1.88;;
68653;SDS011;55636;51.108;13.622;2023-09-19T02:20:24;2.20;;;2.00;;
68653;SDS011;55636;51.108;13.622;2023-09-19T02:21:28;2.72;;;2.00;;
68653;SDS011;55636;51.108;13.622;2023-09-19T02:22:31;2.00;;;1.80;;
68653;SDS011;55636;51.108;13.622;2023-09-19T02:23:34;2.33;;;1.80;;
68653;SDS011;55636;51.108;13.622;2023-09-19T02:24:37;2.70;;;1.63;;
68653;SDS011;55636;51.108;13.622;2023-09-19T02:25:40;2.83;;;1.90;;
68653;SDS011;55636;51.108;13.622;2023-09-19T02:26:43;2.05;;;1.80;;
68653;SDS011;55636;51.108;13.622;2023-09-19T02:27:46;2.42;;;1.90;;
68653;SDS011;55636;51.108;13.622;2023-09-19T02:28:48;2.60;;;1.80;;
68653;SDS011;55636;51.108;13.622;2023-09-19T02:29:50;2.95;;;2.30;;
68653;SDS011;55636;51.108;13.622;2023-09-19T02:30:54;2.40;;;1.80;;
68653;SDS011;55636;51.108;13.622;2023-09-19T02:31:57;2.28;;;1.70;;
68653;SDS011;55636;51.108;13.622;2023-09-19T02:33:00;2.95;;;1.50;;
68653;SDS011;55636;51.108;13.622;2023-09-19T02:34:04;2.00;;;1.80;;
68653;SDS011;55636;51.108;13.622;2023-09-19T02:35:08;1.70;;;1.60;;
68653;SDS011;55636;51.108;13.622;2023-09-19T02:36:13;1.77;;;1.65;;
68653;SDS011;55636;51.108;13.622;2023-09-19T02:37:19;2.08;;;1.70;;
68653;SDS011;55636;51.108;13.622;2023-09-19T02:38:22;2.88;;;1.70;;
68653;SDS011;55636;51.108;13.622;2023-09-19T02:39:26;4.43;;;1.80;;
68653;SDS011;55636;51.108;13.622;2023-09-19T02:40:30;1.80;;;1.70;;
68653;SDS011;55636;51.108;13.622;2023-09-19T02:41:32;1.77;;;1.42;;
68653;SDS011;55636;51.108;13.622;2023-09-19T02:42:35;2.15;;;1.70;;
68653;SDS011;55636;51.108;13.622;2023-09-19T02:43:37;2.00;;;1.50;;
68653;SDS011;55636;51.108;13.622;2023-09-19T02:44:40;2.10;;;1.80;;
68653;SDS011;55636;51.108;13.622;2023-09-19T02:45:42;2.15;;;1.73;;
68653;SDS011;55636;51.108;13.622;2023-09-19T02:46:45;1.92;;;1.70;;
68653;SDS011;55636;51.108;13.622;2023-09-19T02:47:51;2.67;;;1.70;;
68653;SDS011;55636;51.108;13.622;2023-09-19T02:48:53;1.70;;;1.60;;
68653;SDS011;55636;51.108;13.622;2023-09-19T02:49:56;1.80;;;1.70;;
68653;SDS011;55636;51.108;13.622;2023-09-19T02:50:59;1.70;;;1.60;;
68653;SDS011;55636;51.108;13.622;2023-09-19T02:52:03;2.67;;;1.70;;
68653;SDS011;55636;51.108;13.622;2023-09-19T02:53:06;2.40;;;1.67;;
68653;SDS011;55636;51.108;13.622;2023-09-19T02:54:09;1.65;;;1.50;;
68653;SDS011;55636;51.108;13.622;2023-09-19T02:55:12;2.90;;;1.63;;
68653;SDS011;55636;51.108;13.622;2023-09-19T02:56:19;3.80;;;1.60;;
68653;SDS011;55636;51.108;13.622;2023-09-19T02:57:22;3.03;;;1.50;;
68653;SDS011;55636;51.108;13.622;2023-09-19T02:58:26;1.80;;;1.40;;
68653;SDS011;55636;51.108;13.622;2023-09-19T02:59:31;2.17;;;1.42;;
68653;SDS011;55636;51.108;13.622;2023-09-19T03:00:34;1.67;;;1.40;;
68653;SDS011;55636;51.108;13.622;2023-09-19T03:01:37;1.40;;;1.30;;
68653;SDS011;55636;51.108;13.622;2023-09-19T03:02:40;2.63;;;1.40;;
68653;SDS011;55636;51.108;13.622;2023-09-19T03:03:44;1.52;;;1.42;;
68653;SDS011;55636;51.108;13.622;2023-09-19T03:04:47;1.60;;;1.40;;
68653;SDS011;55636;51.108;13.622;2023-09-19T03:05:53;1.63;;;1.15;;
68653;SDS011;55636;51.108;13.622;2023-09-19T03:06:57;1.80;;;1.38;;
68653;SDS011;55636;51.108;13.622;2023-09-19T03:08:03;2.67;;;1.50;;
68653;SDS011;55636;51.108;13.622;2023-09-19T03:09:06;1.95;;;1.42;;
68653;SDS011;55636;51.108;13.622;2023-09-19T03:10:16;2.42;;;1.40;;
68653;SDS011;55636;51.108;13.622;2023-09-19T03:11:19;2.00;;;1.55;;
68653;SDS011;55636;51.108;13.622;2023-09-19T03:12:29;2.03;;;1.30;;
68653;SDS011;55636;51.108;13.622;2023-09-19T03:13:32;1.83;;;1.40;;
68653;SDS011;55636;51.108;13.622;2023-09-19T03:14:35;1.70;;;1.60;;
68653;SDS011;55636;51.108;13.622;2023-09-19T03:15:41;2.67;;;1.40;;
68653;SDS011;55636;51.108;13.622;2023-09-19T03:16:46;3.13;;;1.40;;
68653;SDS011;55636;51.108;13.622;2023-09-19T03:17:50;2.38;;;1.45;;
68653;SDS011;55636;51.108;13.622;2023-09-19T03:18:57;2.40;;;1.50;;
68653;SDS011;55636;51.108;13.622;2023-09-19T03:20:04;1.52;;;1.30;;
68653;SDS011;55636;51.108;13.622;2023-09-19T03:21:10;2.22;;;1.60;;
68653;SDS011;55636;51.108;13.622;2023-09-19T03:22:16;1.60;;;1.35;;
68653;SDS011;55636;51.108;13.622;2023-09-19T03:23:18;1.40;;;1.30;;
68653;SDS011;55636;51.108;13.622;2023-09-19T03:24:21;1.60;;;1.50;;
68653;SDS011;55636;51.108;13.622;2023-09-19T03:25:23;1.63;;;1.40;;
68653;SDS011;55636;51.108;13.622;2023-09-19T03:26:28;1.85;;;1.40;;
68653;SDS011;55636;51.108;13.622;2023-09-19T03:27:31;1.40;;;1.30;;
68653;SDS011;55636;51.108;13.622;2023-09-19T03:28:34;3.17;;;1.60;;
68653;SDS011;55636;51.108;13.622;2023-09-19T03:29:37;1.45;;;1.30;;
68653;SDS011;55636;51.108;13.622;2023-09-19T03:30:41;4.63;;;1.38;;
68653;SDS011;55636;51.108;13.622;2023-09-19T03:31:44;2.17;;;1.30;;
68653;SDS011;55636;51.108;13.622;2023-09-19T03:32:48;1.75;;;1.20;;
68653;SDS011;55636;51.108;13.622;2023-09-19T03:33:53;1.10;;;1.10;;
68653;SDS011;55636;51.108;13.622;2023-09-19T03:34:56;1.50;;;1.40;;
68653;SDS011;55636;51.108;13.622;2023-09-19T03:36:01;1.75;;;1.48;;
68653;SDS011;55636;51.108;13.622;2023-09-19T03:37:07;1.50;;;1.40;;
68653;SDS011;55636;51.108;13.622;2023-09-19T03:38:10;1.95;;;1.58;;
68653;SDS011;55636;51.108;13.622;2023-09-19T03:39:14;1.40;;;1.30;;
68653;SDS011;55636;51.108;13.622;2023-09-19T03:40:18;1.88;;;1.50;;
68653;SDS011;55636;51.108;13.622;2023-09-19T03:41:23;1.60;;;1.50;;
68653;SDS011;55636;51.108;13.622;2023-09-19T03:42:26;1.63;;;1.52;;
68653;SDS011;55636;51.108;13.622;2023-09-19T03:43:29;1.80;;;1.40;;
68653;SDS011;55636;51.108;13.622;2023-09-19T03:44:31;1.95;;;1.55;;
68653;SDS011;55636;51.108;13.622;2023-09-19T03:45:34;1.77;;;1.58;;
68653;SDS011;55636;51.108;13.622;2023-09-19T03:46:36;6.93;;;1.55;;
68653;SDS011;55636;51.108;13.622;2023-09-19T03:47:39;2.22;;;1.60;;
68653;SDS011;55636;51.108;13.622;2023-09-19T03:48:45;1.58;;;1.48;;
68653;SDS011;55636;51.108;13.622;2023-09-19T03:49:48;1.65;;;1.55;;
68653;SDS011;55636;51.108;13.622;2023-09-19T03:50:50;1.67;;;1.58;;
68653;SDS011;55636;51.108;13.622;2023-09-19T03:51:54;1.83;;;1.60;;
68653;SDS011;55636;51.108;13.622;2023-09-19T03:52:57;2.00;;;1.38;;
68653;SDS011;55636;51.108;13.622;2023-09-19T03:54:00;1.92;;;1.60;;
68653;SDS011;55636;51.108;13.622;2023-09-19T03:55:02;2.20;;;1.63;;
68653;SDS011;55636;51.108;13.622;2023-09-19T03:56:06;1.60;;;1.50;;
68653;SDS011;55636;51.108;13.622;2023-09-19T03:57:10;1.55;;;1.40;;
68653;SDS011;55636;51.108;13.622;2023-09-19T03:58:14;1.52;;;1.42;;
68653;SDS011;55636;51.108;13.622;2023-09-19T03:59:17;2.63;;;1.30;;
68653;SDS011;55636;51.108;13.622;2023-09-19T04:00:20;1.80;;;1.48;;
68653;SDS011;55636;51.108;13.622;2023-09-19T04:01:25;2.20;;;1.50;;
68653;SDS011;55636;51.108;13.622;2023-09-19T04:02:30;1.50;;;1.40;;
68653;SDS011;55636;51.108;13.622;2023-09-19T04:03:35;1.40;;;1.30;;
68653;SDS011;55636;51.108;13.622;2023-09-19T04:04:48;2.13;;;1.40;;
68653;SDS011;55636;51.108;13.622;2023-09-19T04:05:52;2.67;;;1.63;;
68653;SDS011;55636;51.108;13.622;2023-09-19T04:06:54;1.50;;;1.30;;
68653;SDS011;55636;51.108;13.622;2023-09-19T04:07:58;2.22;;;1.50;;
68653;SDS011;55636;51.108;13.622;2023-09-19T04:09:01;1.40;;;1.30;;
68653;SDS011;55636;51.108;13.622;2023-09-19T04:10:08;1.63;;;1.45;;
68653;SDS011;55636;51.108;13.622;2023-09-19T04:11:12;1.77;;;1.40;;
68653;SDS011;55636;51.108;13.622;2023-09-19T04:12:14;1.50;;;1.40;;
68653;SDS011;55636;51.108;13.622;2023-09-19T04:13:19;4.93;;;1.58;;
68653;SDS011;55636;51.108;13.622;2023-09-19T04:14:22;1.73;;;1.30;;
68653;SDS011;55636;51.108;13.622;2023-09-19T04:15:26;2.22;;;1.48;;
68653;SDS011;55636;51.108;13.622;2023-09-19T04:16:29;2.17;;;1.60;;
68653;SDS011;55636;51.108;13.622;2023-09-19T04:17:33;1.92;;;1.50;;
68653;SDS011;55636;51.108;13.622;2023-09-19T04:18:35;1.60;;;1.40;;
68653;SDS011;55636;51.108;13.622;2023-09-19T04:19:41;2.65;;;1.50;;
68653;SDS011;55636;51.108;13.622;2023-09-19T04:20:49;1.75;;;1.45;;
68653;SDS011;55636;51.108;13.622;2023-09-19T04:21:52;2.85;;;1.70;;
68653;SDS011;55636;51.108;13.622;2023-09-19T04:22:55;1.50;;;1.40;;
68653;SDS011;55636;51.108;13.622;2023-09-19T04:23:57;2.33;;;1.38;;
68653;SDS011;55636;51.108;13.622;2023-09-19T04:25:00;3.83;;;1.52;;
68653;SDS011;55636;51.108;13.622;2023-09-19T04:26:02;2.13;;;1.50;;
68653;SDS011;55636;51.108;13.622;2023-09-19T04:27:06;1.70;;;1.60;;
68653;SDS011;55636;51.108;13.622;2023-09-19T04:28:09;1.55;;;1.30;;
68653;SDS011;55636;51.108;13.622;2023-09-19T04:29:13;1.25;;;1.15;;
68653;SDS011;55636;51.108;13.622;2023-09-19T04:30:15;1.58;;;1.35;;
68653;SDS011;55636;51.108;13.622;2023-09-19T04:31:18;1.67;;;1.50;;
68653;SDS011;55636;51.108;13.622;2023-09-19T04:32:23;2.03;;;1.70;;
68653;SDS011;55636;51.108;13.622;2023-09-19T04:33:25;2.95;;;1.83;;
68653;SDS011;55636;51.108;13.622;2023-09-19T04:34:29;1.80;;;1.55;;
68653;SDS011;55636;51.108;13.622;2023-09-19T04:35:32;1.70;;;1.60;;
68653;SDS011;55636;51.108;13.622;2023-09-19T04:36:35;1.52;;;1.30;;
68653;SDS011;55636;51.108;13.622;2023-09-19T04:37:39;1.70;;;1.60;;
68653;SDS011;55636;51.108;13.622;2023-09-19T04:38:42;2.08;;;1.50;;
68653;SDS011;55636;51.108;13.622;2023-09-19T04:39:47;1.52;;;1.40;;
68653;SDS011;55636;51.108;13.622;2023-09-19T04:40:50;2.22;;;1.70;;
68653;SDS011;55636;51.108;13.622;2023-09-19T04:41:59;1.75;;;1.50;;
68653;SDS011;55636;51.108;13.622;2023-09-19T04:43:01;2.10;;;1.60;;
68653;SDS011;55636;51.108;13.622;2023-09-19T04:44:05;2.50;;;1.40;;
68653;SDS011;55636;51.108;13.622;2023-09-19T04:45:07;2.85;;;1.65;;
68653;SDS011;55636;51.108;13.622;2023-09-19T04:46:12;2.55;;;1.50;;
68653;SDS011;55636;51.108;13.622;2023-09-19T04:47:16;1.60;;;1.50;;
68653;SDS011;55636;51.108;13.622;2023-09-19T04:48:19;1.70;;;1.40;;
68653;SDS011;55636;51.108;13.622;2023-09-19T04:49:22;2.78;;;1.50;;
68653;SDS011;55636;51.108;13.622;2023-09-19T04:50:24;2.05;;;1.45;;
68653;SDS011;55636;51.108;13.622;2023-09-19T04:51:28;1.67;;;1.33;;
68653;SDS011;55636;51.108;13.622;2023-09-19T04:52:36;2.13;;;1.70;;
68653;SDS011;55636;51.108;13.622;2023-09-19T04:53:42;1.60;;;1.50;;
68653;SDS011;55636;51.108;13.622;2023-09-19T04:54:46;1.73;;;1.40;;
68653;SDS011;55636;51.108;13.622;2023-09-19T04:55:51;1.63;;;1.48;;
68653;SDS011;55636;51.108;13.622;2023-09-19T04:56:57;1.40;;;1.30;;
68653;SDS011;55636;51.108;13.622;2023-09-19T04:58:00;2.50;;;1.48;;
68653;SDS011;55636;51.108;13.622;2023-09-19T04:59:04;2.45;;;1.83;;
68653;SDS011;55636;51.108;13.622;2023-09-19T05:00:07;2.03;;;1.77;;
68653;SDS011;55636;51.108;13.622;2023-09-19T05:01:14;2.28;;;1.70;;
68653;SDS011;55636;51.108;13.622;2023-09-19T05:02:18;1.92;;;1.70;;
68653;SDS011;55636;51.108;13.622;2023-09-19T05:03:21;3.67;;;1.60;;
68653;SDS011;55636;51.108;13.622;2023-09-19T05:04:24;1.58;;;1.48;;
68653;SDS011;55636;51.108;13.622;2023-09-19T05:05:26;1.58;;;1.48;;
68653;SDS011;55636;51.108;13.622;2023-09-19T05:06:30;2.35;;;1.60;;
68653;SDS011;55636;51.108;13.622;2023-09-19T05:07:33;1.83;;;1.55;;
68653;SDS011;55636;51.108;13.622;2023-09-19T05:08:36;1.60;;;1.50;;
68653;SDS011;55636;51.108;13.622;2023-09-19T05:09:38;1.52;;;1.25;;
68653;SDS011;55636;51.108;13.622;2023-09-19T05:10:44;1.85;;;1.60;;
68653;SDS011;55636;51.108;13.622;2023-09-19T05:11:47;2.50;;;1.65;;
68653;SDS011;55636;51.108;13.622;2023-09-19T05:12:52;2.17;;;1.73;;
68653;SDS011;55636;51.108;13.622;2023-09-19T05:13:55;1.77;;;1.60;;
68653;SDS011;55636;51.108;13.622;2023-09-19T05:14:58;1.67;;;1.58;;
68653;SDS011;55636;51.108;13.622;2023-09-19T05:16:00;1.70;;;1.60;;
68653;SDS011;55636;51.108;13.622;2023-09-19T05:17:04;1.98;;;1.70;;
68653;SDS011;55636;51.108;13.622;2023-09-19T05:18:06;2.65;;;1.52;;
68653;SDS011;55636;51.108;13.622;2023-09-19T05:19:09;1.80;;;1.70;;
68653;SDS011;55636;51.108;13.622;2023-09-19T05:20:13;1.67;;;1.58;;
68653;SDS011;55636;51.108;13.622;2023-09-19T05:21:20;2.08;;;1.60;;
68653;SDS011;55636;51.108;13.622;2023-09-19T05:22:23;2.03;;;1.63;;
68653;SDS011;55636;51.108;13.622;2023-09-19T05:23:28;1.60;;;1.50;;
68653;SDS011;55636;51.108;13.622;2023-09-19T05:24:33;1.65;;;1.50;;
68653;SDS011;55636;51.108;13.622;2023-09-19T05:25:38;5.68;;;1.50;;
68653;SDS011;55636;51.108;13.622;2023-09-19T05:26:42;5.35;;;2.65;;
68653;SDS011;55636;51.108;13.622;2023-09-19T05:27:45;9.02;;;4.03;;
68653;SDS011;55636;51.108;13.622;2023-09-19T05:28:48;11.15;;;4.72;;
68653;SDS011;55636;51.108;13.622;2023-09-19T05:29:50;11.02;;;5.00;;
68653;SDS011;55636;51.108;13.622;2023-09-19T05:30:55;14.30;;;6.13;;
68653;SDS011;55636;51.108;13.622;2023-09-19T05:31:57;15.10;;;4.82;;
68653;SDS011;55636;51.108;13.622;2023-09-19T05:33:00;8.73;;;4.57;;
68653;SDS011;55636;51.108;13.622;2023-09-19T05:34:02;6.03;;;3.72;;
68653;SDS011;55636;51.108;13.622;2023-09-19T05:35:05;6.50;;;3.65;;
68653;SDS011;55636;51.108;13.622;2023-09-19T05:36:11;8.68;;;3.60;;
68653;SDS011;55636;51.108;13.622;2023-09-19T05:37:14;7.07;;;3.28;;
68653;SDS011;55636;51.108;13.622;2023-09-19T05:38:18;6.35;;;2.30;;
68653;SDS011;55636;51.108;13.622;2023-09-19T05:39:21;2.50;;;1.98;;
68653;SDS011;55636;51.108;13.622;2023-09-19T05:40:24;3.75;;;1.98;;
68653;SDS011;55636;51.108;13.622;2023-09-19T05:41:27;3.13;;;1.88;;
68653;SDS011;55636;51.108;13.622;2023-09-19T05:42:30;8.48;;;3.58;;
68653;SDS011;55636;51.108;13.622;2023-09-19T05:43:34;12.52;;;5.30;;
68653;SDS011;55636;51.108;13.622;2023-09-19T05:44:40;15.23;;;5.63;;
68653;SDS011;55636;51.108;13.622;2023-09-19T05:45:42;20.65;;;8.27;;
68653;SDS011;55636;51.108;13.622;2023-09-19T05:46:44;12.98;;;5.82;;
68653;SDS011;55636;51.108;13.622;2023-09-19T05:47:50;11.57;;;4.75;;
68653;SDS011;55636;51.108;13.622;2023-09-19T05:48:58;9.55;;;4.32;;
68653;SDS011;55636;51.108;13.622;2023-09-19T05:50:00;7.38;;;4.38;;
68653;SDS011;55636;51.108;13.622;2023-09-19T05:51:03;8.07;;;3.83;;
68653;SDS011;55636;51.108;13.622;2023-09-19T05:52:05;8.25;;;4.20;;
68653;SDS011;55636;51.108;13.622;2023-09-19T05:53:09;7.72;;;3.97;;
68653;SDS011;55636;51.108;13.622;2023-09-19T05:54:14;6.80;;;3.22;;
68653;SDS011;55636;51.108;13.622;2023-09-19T05:55:17;6.35;;;2.97;;
68653;SDS011;55636;51.108;13.622;2023-09-19T05:56:20;7.82;;;3.92;;
68653;SDS011;55636;51.108;13.622;2023-09-19T05:57:22;8.55;;;3.80;;
68653;SDS011;55636;51.108;13.622;2023-09-19T05:58:26;11.93;;;4.10;;
68653;SDS011;55636;51.108;13.622;2023-09-19T05:59:29;13.07;;;5.13;;
68653;SDS011;55636;51.108;13.622;2023-09-19T06:00:32;19.15;;;5.90;;
68653;SDS011;55636;51.108;13.622;2023-09-19T06:01:36;14.80;;;5.45;;
68653;SDS011;55636;51.108;13.622;2023-09-19T06:02:40;8.05;;;3.70;;
68653;SDS011;55636;51.108;13.622;2023-09-19T06:03:43;5.93;;;2.95;;
68653;SDS011;55636;51.108;13.622;2023-09-19T06:04:45;5.28;;;2.22;;
68653;SDS011;55636;51.108;13.622;2023-09-19T06:05:48;2.47;;;1.98;;
68653;SDS011;55636;51.108;13.622;2023-09-19T06:06:51;3.03;;;1.88;;
68653;SDS011;55636;51.108;13.622;2023-09-19T06:07:54;2.72;;;1.60;;
68653;SDS011;55636;51.108;13.622;2023-09-19T06:08:59;2.25;;;1.55;;
68653;SDS011;55636;51.108;13.622;2023-09-19T06:10:05;2.80;;;1.65;;
68653;SDS011;55636;51.108;13.622;2023-09-19T06:11:09;2.85;;;1.60;;
68653;SDS011;55636;51.108;13.622;2023-09-19T06:12:13;1.73;;;1.63;;
68653;SDS011;55636;51.108;13.622;2023-09-19T06:13:19;1.60;;;1.50;;
68653;SDS011;55636;51.108;13.622;2023-09-19T06:14:22;2.67;;;1.50;;
68653;SDS011;55636;51.108;13.622;2023-09-19T06:15:26;2.60;;;1.58;;
68653;SDS011;55636;51.108;13.622;2023-09-19T06:16:32;1.92;;;1.60;;
68653;SDS011;55636;51.108;13.622;2023-09-19T06:17:34;3.67;;;2.03;;
68653;SDS011;55636;51.108;13.622;2023-09-19T06:18:39;5.32;;;2.65;;
68653;SDS011;55636;51.108;13.622;2023-09-19T06:19:42;7.07;;;3.35;;
68653;SDS011;55636;51.108;13.622;2023-09-19T06:20:48;7.07;;;3.20;;
68653;SDS011;55636;51.108;13.622;2023-09-19T06:21:53;7.55;;;3.50;;
68653;SDS011;55636;51.108;13.622;2023-09-19T06:22:57;7.35;;;3.88;;
68653;SDS011;55636;51.108;13.622;2023-09-19T06:24:00;4.40;;;3.00;;
68653;SDS011;55636;51.108;13.622;2023-09-19T06:25:02;3.65;;;2.70;;
68653;SDS011;55636;51.108;13.622;2023-09-19T06:26:09;4.72;;;2.33;;
68653;SDS011;55636;51.108;13.622;2023-09-19T06:27:11;2.97;;;2.00;;
68653;SDS011;55636;51.108;13.622;2023-09-19T06:28:14;1.95;;;1.75;;
68653;SDS011;55636;51.108;13.622;2023-09-19T06:29:20;2.50;;;1.55;;
68653;SDS011;55636;51.108;13.622;2023-09-19T06:30:25;1.50;;;1.40;;
68653;SDS011;55636;51.108;13.622;2023-09-19T06:31:28;2.00;;;1.58;;
68653;SDS011;55636;51.108;13.622;2023-09-19T06:32:30;2.63;;;1.63;;
68653;SDS011;55636;51.108;13.622;2023-09-19T06:33:33;2.25;;;1.70;;
68653;SDS011;55636;51.108;13.622;2023-09-19T06:34:35;2.00;;;1.70;;
68653;SDS011;55636;51.108;13.622;2023-09-19T06:35:40;2.13;;;1.60;;
68653;SDS011;55636;51.108;13.622;2023-09-19T06:36:44;1.73;;;1.38;;
68653;SDS011;55636;51.108;13.622;2023-09-19T06:37:47;1.75;;;1.60;;
68653;SDS011;55636;51.108;13.622;2023-09-19T06:38:50;1.95;;;1.70;;
68653;SDS011;55636;51.108;13.622;2023-09-19T06:39:53;3.60;;;2.00;;
68653;SDS011;55636;51.108;13.622;2023-09-19T06:40:55;3.30;;;2.10;;